createdAt,value
2022-10-24T00:01:11.510Z,8.67
2022-10-24T00:02:45.366Z,8.62
2022-10-24T00:04:18.521Z,8.60
2022-10-24T00:05:51.775Z,8.61
2022-10-24T00:07:25.054Z,8.62
2022-10-24T00:08:58.326Z,8.60
2022-10-24T00:10:32.876Z,8.59
2022-10-24T00:12:07.102Z,8.61
2022-10-24T00:13:40.399Z,8.62
2022-10-24T00:15:14.249Z,8.64
2022-10-24T00:16:47.397Z,8.67
2022-10-24T00:18:20.721Z,8.69
2022-10-24T00:19:54.252Z,8.69
2022-10-24T00:21:27.679Z,8.77
2022-10-24T00:23:00.802Z,8.77
2022-10-24T00:24:34.104Z,8.79
2022-10-24T00:26:08.824Z,8.80
2022-10-24T00:27:42.220Z,8.83
2022-10-24T00:29:15.312Z,8.82
2022-10-24T00:30:52.774Z,8.83
2022-10-24T00:32:25.893Z,8.74
2022-10-24T00:34:00.084Z,8.60
2022-10-24T00:35:35.069Z,8.55
2022-10-24T00:37:08.414Z,8.43
2022-10-24T00:38:41.549Z,8.32
2022-10-24T00:40:18.905Z,8.21
2022-10-24T00:41:54.258Z,8.11
2022-10-24T00:43:28.568Z,8.05
2022-10-24T00:45:02.772Z,7.95
2022-10-24T00:46:36.354Z,7.89
2022-10-24T00:48:18.845Z,7.83
2022-10-24T00:50:00.690Z,7.80
2022-10-24T00:51:35.484Z,7.82
2022-10-24T00:53:09.896Z,7.83
2022-10-24T00:54:44.042Z,7.89
2022-10-24T00:56:22.816Z,7.90
2022-10-24T00:58:01.617Z,7.91
2022-10-24T00:59:36.323Z,7.92
2022-10-24T01:01:09.217Z,7.98
2022-10-24T01:02:43.713Z,8.00
2022-10-24T01:04:17.188Z,8.00
2022-10-24T01:06:07.064Z,8.01
2022-10-24T01:07:50.929Z,7.97
2022-10-24T01:09:44.486Z,8.04
2022-10-24T01:11:29.950Z,8.08
2022-10-24T01:13:17.060Z,8.08
2022-10-24T01:14:59.223Z,8.11
2022-10-24T01:16:41.801Z,8.11
2022-10-24T01:18:22.533Z,8.10
2022-10-24T01:20:26.668Z,8.04
2022-10-24T01:22:05.201Z,8.00
2022-10-24T01:24:32.157Z,7.93
2022-10-24T01:26:27.007Z,7.83
2022-10-24T01:28:05.755Z,7.76
2022-10-24T01:30:08.353Z,7.74
2022-10-24T01:31:48.936Z,7.72
2022-10-24T01:33:27.927Z,7.74
2022-10-24T01:35:06.744Z,7.76
2022-10-24T01:36:45.813Z,7.78
2022-10-24T01:38:25.459Z,7.70
2022-10-24T01:40:03.973Z,7.64
2022-10-24T01:41:37.749Z,7.62
2022-10-24T01:43:14.497Z,7.65
2022-10-24T01:44:51.678Z,7.67
2022-10-24T01:46:30.085Z,7.69
2022-10-24T01:48:06.759Z,7.71
2022-10-24T01:49:43.255Z,7.74
2022-10-24T01:51:19.076Z,7.76
2022-10-24T01:52:53.225Z,7.76
2022-10-24T01:54:26.495Z,7.76
2022-10-24T01:56:00.693Z,7.77
2022-10-24T01:57:34.671Z,7.76
2022-10-24T01:59:09.133Z,7.73
2022-10-24T02:00:44.694Z,7.71
2022-10-24T02:02:23.625Z,7.70
2022-10-24T02:03:58.221Z,7.67
2022-10-24T02:05:35.759Z,7.63
2022-10-24T02:07:11.289Z,7.61
2022-10-24T02:08:48.592Z,7.62
2022-10-24T02:10:27.370Z,7.58
2022-10-24T02:12:02.127Z,7.63
2022-10-24T02:13:45.131Z,7.60
2022-10-24T02:15:22.209Z,7.50
2022-10-24T02:16:55.750Z,7.42
2022-10-24T02:18:31.801Z,7.29
2022-10-24T02:20:06.074Z,7.31
2022-10-24T02:21:46.038Z,7.25
2022-10-24T02:23:26.472Z,7.21
2022-10-24T02:25:04.903Z,7.18
2022-10-24T02:26:46.285Z,7.15
2022-10-24T02:28:22.012Z,7.11
2022-10-24T02:30:00.341Z,7.06
2022-10-24T02:31:37.707Z,7.03
2022-10-24T02:33:12.482Z,6.96
2022-10-24T02:34:47.972Z,6.95
2022-10-24T02:36:27.323Z,6.92
2022-10-24T02:38:05.927Z,6.96
2022-10-24T02:39:42.207Z,6.93
2022-10-24T02:41:21.100Z,6.93
2022-10-24T02:42:58.452Z,6.89
2022-10-24T02:44:33.867Z,6.76
2022-10-24T02:46:09.115Z,6.82
2022-10-24T02:47:44.594Z,6.81
2022-10-24T02:49:18.310Z,6.73
2022-10-24T02:50:52.106Z,6.78
2022-10-24T02:52:25.871Z,6.81
2022-10-24T02:54:00.866Z,6.83
2022-10-24T02:55:34.149Z,6.86
2022-10-24T02:57:06.511Z,6.80
2022-10-24T02:58:39.698Z,6.74
2022-10-24T03:00:12.929Z,6.75
2022-10-24T03:01:46.290Z,6.72
2022-10-24T03:03:19.761Z,6.71
2022-10-24T03:04:53.045Z,6.68
2022-10-24T03:06:27.577Z,6.68
2022-10-24T03:08:00.833Z,6.67
2022-10-24T03:09:34.396Z,6.66
2022-10-24T03:11:07.829Z,6.63
2022-10-24T03:12:41.211Z,6.58
2022-10-24T03:14:14.405Z,6.62
2022-10-24T03:17:26.001Z,6.62
2022-10-24T03:19:00.321Z,6.63
2022-10-24T03:20:33.569Z,6.66
2022-10-24T03:22:08.414Z,6.69
2022-10-24T03:23:41.648Z,6.67
2022-10-24T03:25:14.784Z,6.67
2022-10-24T03:26:47.935Z,6.62
2022-10-24T03:28:21.229Z,6.59
2022-10-24T03:29:54.523Z,6.56
2022-10-24T03:31:28.113Z,6.53
2022-10-24T03:33:00.274Z,6.56
2022-10-24T03:34:34.364Z,6.60
2022-10-24T03:36:07.825Z,6.63
2022-10-24T03:37:42.412Z,6.59
2022-10-24T03:39:15.699Z,6.66
2022-10-24T03:40:49.242Z,6.71
2022-10-24T03:42:22.483Z,6.71
2022-10-24T03:43:55.605Z,6.71
2022-10-24T03:45:28.791Z,6.68
2022-10-24T03:47:02.323Z,6.67
2022-10-24T03:48:35.581Z,6.67
2022-10-24T03:50:09.720Z,6.64
2022-10-24T03:51:42.934Z,6.65
2022-10-24T03:53:17.503Z,6.65
2022-10-24T03:54:50.945Z,6.64
2022-10-24T03:56:24.098Z,6.61
2022-10-24T03:57:57.544Z,6.60
2022-10-24T03:59:30.815Z,6.60
2022-10-24T04:01:04.149Z,6.61
2022-10-24T04:02:40.217Z,6.64
2022-10-24T04:04:16.184Z,6.66
2022-10-24T04:05:49.545Z,6.67
2022-10-24T04:07:22.781Z,6.64
2022-10-24T04:08:57.542Z,6.64
2022-10-24T04:10:30.786Z,6.63
2022-10-24T04:12:04.718Z,6.67
2022-10-24T04:13:37.018Z,6.69
2022-10-24T04:15:10.903Z,6.70
2022-10-24T04:16:44.095Z,6.68
2022-10-24T04:18:17.354Z,6.67
2022-10-24T04:19:50.578Z,6.68
2022-10-24T04:21:23.708Z,6.64
2022-10-24T04:22:58.291Z,6.64
2022-10-24T04:24:33.816Z,6.64
2022-10-24T04:26:07.045Z,6.65
2022-10-24T04:27:40.836Z,6.65
2022-10-24T04:29:14.139Z,6.65
2022-10-24T04:30:47.555Z,6.63
2022-10-24T04:32:20.736Z,6.57
2022-10-24T04:33:53.838Z,6.50
2022-10-24T04:35:27.500Z,6.48
2022-10-24T04:37:00.712Z,6.47
2022-10-24T04:38:33.996Z,6.44
2022-10-24T04:40:08.749Z,6.45
2022-10-24T04:41:41.914Z,6.46
2022-10-24T04:43:15.184Z,6.46
2022-10-24T04:44:48.689Z,6.47
2022-10-24T04:46:21.900Z,6.40
2022-10-24T04:47:55.063Z,6.53
2022-10-24T04:49:28.957Z,6.55
2022-10-24T04:51:02.684Z,6.49
2022-10-24T04:52:35.814Z,6.51
2022-10-24T04:54:09.186Z,6.57
2022-10-24T04:55:43.939Z,6.55
2022-10-24T04:57:17.447Z,6.51
2022-10-24T04:58:50.565Z,6.43
2022-10-24T05:00:24.072Z,6.39
2022-10-24T05:01:57.387Z,6.34
2022-10-24T05:03:30.727Z,6.37
2022-10-24T05:05:03.897Z,6.36
2022-10-24T05:06:39.226Z,6.34
2022-10-24T05:08:14.684Z,6.31
2022-10-24T05:09:47.938Z,6.30
2022-10-24T05:11:22.465Z,6.35
2022-10-24T05:12:55.628Z,6.40
2022-10-24T05:14:28.812Z,6.43
2022-10-24T05:16:03.277Z,6.49
2022-10-24T05:17:36.665Z,6.54
2022-10-24T05:19:09.830Z,6.56
2022-10-24T05:20:43.040Z,6.60
2022-10-24T05:22:16.307Z,6.69
2022-10-24T05:23:49.444Z,6.79
2022-10-24T05:25:22.871Z,6.85
2022-10-24T05:26:57.750Z,6.95
2022-10-24T05:28:31.022Z,7.07
2022-10-24T05:30:04.066Z,7.21
2022-10-24T05:31:37.330Z,7.36
2022-10-24T05:33:10.635Z,7.45
2022-10-24T05:34:42.954Z,7.51
2022-10-24T05:36:16.083Z,7.61
2022-10-24T05:37:49.264Z,7.66
2022-10-24T05:39:22.965Z,7.74
2022-10-24T05:40:56.365Z,7.83
2022-10-24T05:42:30.870Z,7.90
2022-10-24T05:44:04.061Z,8.01
2022-10-24T05:45:37.394Z,8.12
2022-10-24T05:47:10.797Z,8.21
2022-10-24T05:48:43.916Z,8.26
2022-10-24T05:50:17.514Z,8.26
2022-10-24T05:51:49.810Z,8.33
2022-10-24T05:53:22.966Z,8.39
2022-10-24T05:55:06.728Z,8.41
2022-10-24T05:56:40.448Z,8.53
2022-10-24T05:58:15.021Z,8.67
2022-10-24T05:59:48.286Z,8.72
2022-10-24T06:01:21.488Z,8.79
2022-10-24T06:02:54.809Z,8.93
2022-10-24T06:04:27.982Z,9.18
2022-10-24T06:06:06.285Z,9.51
2022-10-24T06:07:39.527Z,9.89
2022-10-24T06:09:13.261Z,10.20
2022-10-24T06:10:48.778Z,10.65
2022-10-24T06:12:22.146Z,11.09
2022-10-24T06:13:56.696Z,11.52
2022-10-24T06:15:30.062Z,11.87
2022-10-24T06:17:05.583Z,12.09
2022-10-24T06:18:40.328Z,12.28
2022-10-24T06:20:13.493Z,12.47
2022-10-24T06:21:46.716Z,12.67
2022-10-24T06:23:20.090Z,12.61
2022-10-24T06:24:53.516Z,12.72
2022-10-24T06:26:26.913Z,12.82
2022-10-24T06:28:00.416Z,13.14
2022-10-24T06:29:35.711Z,13.56
2022-10-24T06:31:09.446Z,13.97
2022-10-24T06:32:44.554Z,14.26
2022-10-24T06:34:18.116Z,14.46
2022-10-24T06:35:51.328Z,14.78
2022-10-24T06:37:24.792Z,14.94
2022-10-24T06:38:58.440Z,15.15
2022-10-24T06:40:31.824Z,15.33
2022-10-24T06:42:05.061Z,15.52
2022-10-24T06:43:39.032Z,15.86
2022-10-24T06:45:13.897Z,16.18
2022-10-24T06:46:47.276Z,16.47
2022-10-24T06:48:20.561Z,16.54
2022-10-24T06:49:53.838Z,16.78
2022-10-24T06:51:27.260Z,16.92
2022-10-24T06:53:00.471Z,16.93
2022-10-24T06:54:35.240Z,16.86
2022-10-24T06:56:09.479Z,17.01
2022-10-24T06:57:43.178Z,17.17
2022-10-24T06:59:18.236Z,17.36
2022-10-24T07:00:52.921Z,17.55
2022-10-24T07:02:26.413Z,17.73
2022-10-24T07:03:59.694Z,17.96
2022-10-24T07:05:32.889Z,18.14
2022-10-24T07:07:06.193Z,18.19
2022-10-24T07:08:39.527Z,18.20
2022-10-24T07:10:14.739Z,18.27
2022-10-24T07:11:47.932Z,18.38
2022-10-24T07:13:21.087Z,18.46
2022-10-24T07:14:54.336Z,18.53
2022-10-24T07:16:29.041Z,18.64
2022-10-24T07:18:02.311Z,18.84
2022-10-24T07:19:37.439Z,18.94
2022-10-24T07:21:16.009Z,19.12
2022-10-24T07:22:49.508Z,19.09
2022-10-24T07:24:22.759Z,19.31
2022-10-24T07:25:56.080Z,19.61
2022-10-24T07:27:29.362Z,19.87
2022-10-24T07:29:03.701Z,19.94
2022-10-24T07:30:36.951Z,20.13
2022-10-24T07:32:12.159Z,20.12
2022-10-24T07:33:45.509Z,20.07
2022-10-24T07:35:18.745Z,20.22
2022-10-24T07:36:51.959Z,20.45
2022-10-24T07:38:25.174Z,20.58
2022-10-24T07:39:58.681Z,20.48
2022-10-24T07:41:33.930Z,20.56
2022-10-24T07:43:07.139Z,20.76
2022-10-24T07:44:40.525Z,20.98
2022-10-24T07:46:17.160Z,21.16
2022-10-24T07:47:51.748Z,21.24
2022-10-24T07:49:26.450Z,21.27
2022-10-24T07:51:01.192Z,21.19
2022-10-24T07:52:34.491Z,21.23
2022-10-24T07:54:08.008Z,21.40
2022-10-24T07:55:42.413Z,21.44
2022-10-24T07:57:15.649Z,21.34
2022-10-24T07:58:48.966Z,21.05
2022-10-24T08:00:22.789Z,20.79
2022-10-24T08:01:56.037Z,20.32
2022-10-24T08:03:30.720Z,20.40
2022-10-24T08:05:04.061Z,20.33
2022-10-24T08:06:37.743Z,20.34
2022-10-24T08:08:30.853Z,20.45
2022-10-24T08:10:05.474Z,20.44
2022-10-24T08:11:40.181Z,20.64
2022-10-24T08:13:13.689Z,20.93
2022-10-24T08:14:47.701Z,21.15
2022-10-24T08:16:22.909Z,21.57
2022-10-24T08:17:56.629Z,21.91
2022-10-24T08:19:31.673Z,22.11
2022-10-24T08:21:07.081Z,22.59
2022-10-24T08:22:40.317Z,22.77
2022-10-24T08:24:13.786Z,23.01
2022-10-24T08:25:46.906Z,23.19
2022-10-24T08:27:20.123Z,23.35
2022-10-24T08:28:55.377Z,23.38
2022-10-24T08:30:28.848Z,23.35
2022-10-24T08:32:01.976Z,23.54
2022-10-24T08:33:35.291Z,23.73
2022-10-24T08:35:10.872Z,24.05
2022-10-24T08:36:44.769Z,24.25
2022-10-24T08:38:18.062Z,24.40
2022-10-24T08:39:55.618Z,24.43
2022-10-24T08:41:32.316Z,24.20
2022-10-24T08:43:05.672Z,24.03
2022-10-24T08:44:40.940Z,23.83
2022-10-24T08:46:29.576Z,23.56
2022-10-24T08:48:08.485Z,23.27
2022-10-24T08:49:50.264Z,23.00
2022-10-24T08:51:36.096Z,22.90
2022-10-24T08:53:14.619Z,22.66
2022-10-24T08:54:48.409Z,22.22
2022-10-24T08:56:22.382Z,22.08
2022-10-24T08:57:58.782Z,21.91
2022-10-24T08:59:36.052Z,21.84
2022-10-24T09:01:15.912Z,21.80
2022-10-24T09:02:54.408Z,21.72
2022-10-24T09:04:33.069Z,21.60
2022-10-24T09:06:13.414Z,21.66
2022-10-24T09:07:49.201Z,21.64
2022-10-24T09:09:27.543Z,21.71
2022-10-24T09:11:02.521Z,21.76
2022-10-24T09:12:37.279Z,21.80
2022-10-24T09:14:14.853Z,21.77
2022-10-24T09:15:48.769Z,21.78
2022-10-24T09:17:24.036Z,21.78
2022-10-24T09:18:59.189Z,21.79
2022-10-24T09:20:33.685Z,21.71
2022-10-24T09:22:09.232Z,21.69
2022-10-24T09:23:44.998Z,21.78
2022-10-24T09:25:22.712Z,21.85
2022-10-24T09:26:56.087Z,21.74
2022-10-24T09:28:29.457Z,21.72
2022-10-24T09:30:03.032Z,21.66
2022-10-24T09:31:36.512Z,21.74
2022-10-24T09:33:22.793Z,21.75
2022-10-24T09:34:56.836Z,21.77
2022-10-24T09:36:31.917Z,21.86
2022-10-24T09:38:27.818Z,21.87
2022-10-24T09:40:20.524Z,21.94
2022-10-24T09:41:54.264Z,21.97
2022-10-24T09:43:40.563Z,21.91
2022-10-24T09:45:39.828Z,21.93
2022-10-24T09:47:27.165Z,21.96
2022-10-24T09:49:02.986Z,22.00
2022-10-24T09:50:37.389Z,22.05
2022-10-24T09:52:20.161Z,22.06
2022-10-24T09:54:06.697Z,22.05
2022-10-24T09:55:46.825Z,21.84
2022-10-24T09:57:21.497Z,21.91
2022-10-24T09:58:54.749Z,21.99
2022-10-24T10:00:30.796Z,22.11
2022-10-24T10:02:24.574Z,22.23
2022-10-24T10:04:08.433Z,22.36
2022-10-24T10:05:45.905Z,22.45
2022-10-24T10:07:26.564Z,22.53
2022-10-24T10:09:00.014Z,22.62
2022-10-24T10:10:35.260Z,22.63
2022-10-24T10:12:27.922Z,22.73
2022-10-24T10:14:03.801Z,22.80
2022-10-24T10:15:40.181Z,22.88
2022-10-24T10:17:24.330Z,22.97
2022-10-24T10:19:04.126Z,23.07
2022-10-24T10:20:42.149Z,23.15
2022-10-24T10:22:26.087Z,23.27
2022-10-24T10:24:01.956Z,23.35
2022-10-24T10:25:35.327Z,23.43
2022-10-24T10:27:32.594Z,23.53
2022-10-24T10:29:09.177Z,23.57
2022-10-24T10:30:50.926Z,23.68
2022-10-24T10:32:31.209Z,23.78
2022-10-24T10:34:23.133Z,23.89
2022-10-24T10:36:04.593Z,23.98
2022-10-24T10:37:44.979Z,24.10
2022-10-24T10:39:33.789Z,24.19
2022-10-24T10:41:14.488Z,24.30
2022-10-24T10:43:07.343Z,24.39
2022-10-24T10:44:58.427Z,24.40
2022-10-24T10:46:38.926Z,24.47
2022-10-24T10:48:37.678Z,24.57
2022-10-24T10:50:26.592Z,24.71
2022-10-24T10:52:04.122Z,24.80
2022-10-24T10:53:43.798Z,24.79
2022-10-24T10:55:29.608Z,24.91
2022-10-24T10:57:09.480Z,24.98
2022-10-24T10:58:54.400Z,25.04
2022-10-24T11:00:37.133Z,25.16
2022-10-24T11:02:25.423Z,25.28
2022-10-24T11:04:05.956Z,25.32
2022-10-24T11:05:49.759Z,25.35
2022-10-24T11:07:33.649Z,25.42
2022-10-24T11:09:29.809Z,25.44
2022-10-24T11:11:06.875Z,25.47
2022-10-24T11:12:42.262Z,25.57
2022-10-24T11:14:29.883Z,25.67
2022-10-24T11:16:08.568Z,25.69
2022-10-24T11:17:46.914Z,25.68
2022-10-24T11:19:25.954Z,25.71
2022-10-24T11:21:03.985Z,25.69
2022-10-24T11:22:43.181Z,25.69
2022-10-24T11:24:20.352Z,25.75
2022-10-24T11:25:58.513Z,25.76
2022-10-24T11:27:39.929Z,25.83
2022-10-24T11:29:24.145Z,25.90
2022-10-24T11:31:02.083Z,26.00
2022-10-24T11:32:40.434Z,26.02
2022-10-24T11:34:16.633Z,26.04
2022-10-24T11:36:12.540Z,26.06
2022-10-24T11:37:51.619Z,26.10
2022-10-24T11:39:28.911Z,26.08
2022-10-24T11:41:34.486Z,26.19
2022-10-24T11:43:17.384Z,26.20
2022-10-24T11:44:57.185Z,26.18
2022-10-24T11:46:38.175Z,26.05
2022-10-24T11:48:18.129Z,26.09
2022-10-24T11:49:57.851Z,26.07
2022-10-24T11:51:37.933Z,26.09
2022-10-24T11:53:25.039Z,26.13
2022-10-24T11:55:07.169Z,26.13
2022-10-24T11:56:47.018Z,26.11
2022-10-24T11:58:23.912Z,26.13
2022-10-24T11:59:59.917Z,26.14
2022-10-24T12:01:52.937Z,26.19
2022-10-24T12:04:11.454Z,26.24
2022-10-24T12:06:05.107Z,26.31
2022-10-24T12:08:14.285Z,26.31
2022-10-24T12:10:12.999Z,26.24
2022-10-24T12:12:08.314Z,26.23
2022-10-24T12:14:09.035Z,26.22
2022-10-24T12:15:52.898Z,26.20
2022-10-24T12:17:47.619Z,26.24
2022-10-24T12:19:23.613Z,26.27
2022-10-24T12:21:01.864Z,26.28
2022-10-24T12:22:38.275Z,26.32
2022-10-24T12:24:24.150Z,26.31
2022-10-24T12:26:09.004Z,26.31
2022-10-24T12:27:43.176Z,26.31
2022-10-24T12:29:25.372Z,26.30
2022-10-24T12:31:26.212Z,26.29
2022-10-24T12:33:09.549Z,26.29
2022-10-24T12:34:49.068Z,26.30
2022-10-24T12:37:08.283Z,26.26
2022-10-24T12:39:09.548Z,26.28
2022-10-24T12:40:57.866Z,26.29
2022-10-24T12:43:13.568Z,26.24
2022-10-24T12:44:50.539Z,26.21
2022-10-24T12:46:56.235Z,26.20
2022-10-24T12:48:35.755Z,26.24
2022-10-24T12:50:45.935Z,26.21
2022-10-24T12:52:51.457Z,26.13
2022-10-24T12:54:41.236Z,26.11
2022-10-24T12:57:57.858Z,26.06
2022-10-24T12:59:32.660Z,26.06
2022-10-24T13:01:08.034Z,26.00
2022-10-24T13:03:03.464Z,26.05
2022-10-24T13:04:56.458Z,26.05
2022-10-24T13:06:37.983Z,26.03
2022-10-24T13:08:30.799Z,26.01
2022-10-24T13:10:25.956Z,25.96
2022-10-24T13:12:10.606Z,25.92
2022-10-24T13:14:09.487Z,25.85
2022-10-24T13:15:50.060Z,25.88
2022-10-24T13:17:33.625Z,25.87
2022-10-24T13:19:17.369Z,25.93
2022-10-24T13:21:08.665Z,25.91
2022-10-24T13:22:47.160Z,25.91
2022-10-24T13:24:30.849Z,25.88
2022-10-24T13:26:04.909Z,25.86
2022-10-24T13:27:38.084Z,25.81
2022-10-24T13:29:16.877Z,25.82
2022-10-24T13:30:53.316Z,25.83
2022-10-24T13:32:35.092Z,25.83
2022-10-24T13:34:28.813Z,25.81
2022-10-24T13:36:16.617Z,25.78
2022-10-24T13:37:54.117Z,25.76
2022-10-24T13:39:37.498Z,25.68
2022-10-24T13:41:19.989Z,25.68
2022-10-24T13:42:57.577Z,25.73
2022-10-24T13:44:39.702Z,25.71
2022-10-24T13:46:24.089Z,25.69
2022-10-24T13:48:02.077Z,25.71
2022-10-24T13:49:41.038Z,25.72
2022-10-24T13:51:19.234Z,25.68
2022-10-24T13:52:55.023Z,25.67
2022-10-24T13:54:33.189Z,25.70
2022-10-24T13:56:10.877Z,25.73
2022-10-24T13:57:53.544Z,25.76
2022-10-24T13:59:31.605Z,25.75
2022-10-24T14:01:10.060Z,25.76
2022-10-24T14:02:44.202Z,25.75
2022-10-24T14:04:17.573Z,25.73
2022-10-24T14:05:54.402Z,25.68
2022-10-24T14:07:31.441Z,25.63
2022-10-24T14:09:10.319Z,25.62
2022-10-24T14:10:43.479Z,25.59
2022-10-24T14:12:21.811Z,25.49
2022-10-24T14:13:59.586Z,25.52
2022-10-24T14:15:34.700Z,25.48
2022-10-24T14:17:22.799Z,25.45
2022-10-24T14:19:15.459Z,25.44
2022-10-24T14:20:56.792Z,25.43
2022-10-24T14:22:36.014Z,25.40
2022-10-24T14:24:15.311Z,25.37
2022-10-24T14:25:57.318Z,25.36
2022-10-24T14:27:30.578Z,25.30
2022-10-24T14:29:03.971Z,25.30
2022-10-24T14:30:37.607Z,25.28
2022-10-24T14:32:16.457Z,25.14
2022-10-24T14:33:51.544Z,25.24
2022-10-24T14:35:25.204Z,25.22
2022-10-24T14:37:02.312Z,25.17
2022-10-24T14:38:36.611Z,25.12
2022-10-24T14:40:17.345Z,25.08
2022-10-24T14:41:52.136Z,25.01
2022-10-24T14:43:29.673Z,24.96
2022-10-24T14:45:02.998Z,24.91
2022-10-24T14:46:37.582Z,24.85
2022-10-24T14:48:23.793Z,24.80
2022-10-24T14:49:57.604Z,24.73
2022-10-24T14:51:38.579Z,24.67
2022-10-24T14:53:26.069Z,24.62
2022-10-24T14:55:03.274Z,24.57
2022-10-24T14:56:38.169Z,24.48
2022-10-24T14:58:23.718Z,24.42
2022-10-24T14:59:58.483Z,24.36
2022-10-24T15:01:32.213Z,24.33
2022-10-24T15:03:05.504Z,24.27
2022-10-24T15:04:42.071Z,24.19
2022-10-24T15:06:24.873Z,24.17
2022-10-24T15:08:20.924Z,24.12
2022-10-24T15:09:58.516Z,24.07
2022-10-24T15:11:33.497Z,24.03
2022-10-24T15:13:13.680Z,24.00
2022-10-24T15:14:50.179Z,23.94
2022-10-24T15:16:28.563Z,23.87
2022-10-24T15:18:10.001Z,23.79
2022-10-24T15:19:43.214Z,23.68
2022-10-24T15:21:20.753Z,23.60
2022-10-24T15:22:58.252Z,23.54
2022-10-24T15:24:31.638Z,23.48
2022-10-24T15:26:11.869Z,23.41
2022-10-24T15:27:47.549Z,23.37
2022-10-24T15:29:23.222Z,23.33
2022-10-24T15:30:56.585Z,23.28
2022-10-24T15:32:29.764Z,23.22
2022-10-24T15:34:03.077Z,23.17
2022-10-24T15:35:42.479Z,23.09
2022-10-24T15:37:20.587Z,23.02
2022-10-24T15:38:57.975Z,22.95
2022-10-24T15:40:33.915Z,22.86
2022-10-24T15:42:10.235Z,22.80
2022-10-24T15:43:43.734Z,22.70
2022-10-24T15:45:18.455Z,22.59
2022-10-24T15:46:51.741Z,22.49
2022-10-24T15:48:25.477Z,22.36
2022-10-24T15:49:58.972Z,22.27
2022-10-24T15:51:32.546Z,22.22
2022-10-24T15:53:06.791Z,22.11
2022-10-24T15:54:42.014Z,22.05
2022-10-24T15:56:15.532Z,22.02
2022-10-24T15:57:50.269Z,21.98
2022-10-24T15:59:26.809Z,21.93
2022-10-24T16:01:00.542Z,21.90
2022-10-24T16:02:33.992Z,21.81
2022-10-24T16:04:09.372Z,21.71
2022-10-24T16:05:44.838Z,21.65
2022-10-24T16:07:18.266Z,21.51
2022-10-24T16:08:51.834Z,21.46
2022-10-24T16:10:25.037Z,21.40
2022-10-24T16:11:58.538Z,21.34
2022-10-24T16:13:33.148Z,21.28
2022-10-24T16:15:07.585Z,21.24
2022-10-24T16:16:40.841Z,21.21
2022-10-24T16:18:14.620Z,21.15
2022-10-24T16:19:47.847Z,21.10
2022-10-24T16:21:23.794Z,21.05
2022-10-24T16:22:57.050Z,20.98
2022-10-24T16:24:30.446Z,20.91
2022-10-24T16:26:03.620Z,20.84
2022-10-24T16:27:36.841Z,20.75
2022-10-24T16:29:11.796Z,20.67
2022-10-24T16:30:45.129Z,20.59
2022-10-24T16:33:56.367Z,20.41
2022-10-24T16:35:31.178Z,20.35
2022-10-24T16:37:04.486Z,20.32
2022-10-24T16:38:37.866Z,20.28
2022-10-24T16:40:12.232Z,20.26
2022-10-24T16:41:46.370Z,20.20
2022-10-24T16:43:21.332Z,20.13
2022-10-24T16:44:56.034Z,20.03
2022-10-24T16:46:29.547Z,19.97
2022-10-24T16:48:02.761Z,19.89
2022-10-24T16:49:35.974Z,19.83
2022-10-24T16:51:11.716Z,19.72
2022-10-24T16:52:45.299Z,19.66
2022-10-24T16:54:19.518Z,19.59
2022-10-24T16:55:55.005Z,19.53
2022-10-24T16:57:28.211Z,19.45
2022-10-24T16:59:01.504Z,19.36
2022-10-24T17:00:36.113Z,19.28
2022-10-24T17:02:10.169Z,19.19
2022-10-24T17:03:45.067Z,19.13
2022-10-24T17:05:19.577Z,19.06
2022-10-24T17:06:52.822Z,18.98
2022-10-24T17:08:26.414Z,18.92
2022-10-24T17:09:59.537Z,18.88
2022-10-24T17:11:44.953Z,18.82
2022-10-24T17:13:19.082Z,18.77
2022-10-24T17:14:52.407Z,18.71
2022-10-24T17:16:26.942Z,18.67
2022-10-24T17:18:00.427Z,18.63
2022-10-24T17:19:35.827Z,18.57
2022-10-24T17:21:09.209Z,18.49
2022-10-24T17:22:44.574Z,18.41
2022-10-24T17:24:19.756Z,18.37
2022-10-24T17:25:53.251Z,18.30
2022-10-24T17:27:26.979Z,18.23
2022-10-24T17:29:02.539Z,18.13
2022-10-24T17:30:36.273Z,18.06
2022-10-24T17:32:12.765Z,18.02
2022-10-24T17:33:46.407Z,17.95
2022-10-24T17:35:21.961Z,17.90
2022-10-24T17:37:03.872Z,17.86
2022-10-24T17:38:44.916Z,17.81
2022-10-24T17:40:21.592Z,17.70
2022-10-24T17:41:55.003Z,17.67
2022-10-24T17:43:29.779Z,17.65
2022-10-24T17:45:03.304Z,17.59
2022-10-24T17:46:37.925Z,17.53
2022-10-24T17:48:12.856Z,17.54
2022-10-24T17:49:46.453Z,17.55
2022-10-24T17:51:23.289Z,17.52
2022-10-24T17:52:56.574Z,17.47
2022-10-24T17:54:29.909Z,17.39
2022-10-24T17:56:03.128Z,17.35
2022-10-24T17:57:36.423Z,17.21
2022-10-24T17:59:10.434Z,17.22
2022-10-24T18:00:44.269Z,17.17
2022-10-24T18:02:17.733Z,17.10
2022-10-24T18:03:52.425Z,17.03
2022-10-24T18:05:25.943Z,16.94
2022-10-24T18:06:59.156Z,16.80
2022-10-24T18:08:33.743Z,16.70
2022-10-24T18:10:07.480Z,16.67
2022-10-24T18:11:41.288Z,16.62
2022-10-24T18:13:14.491Z,16.55
2022-10-24T18:14:47.720Z,16.47
2022-10-24T18:16:21.963Z,16.46
2022-10-24T18:17:55.607Z,16.45
2022-10-24T18:19:30.173Z,16.44
2022-10-24T18:21:08.609Z,16.44
2022-10-24T18:22:42.737Z,16.40
2022-10-24T18:24:16.281Z,16.39
2022-10-24T18:25:49.459Z,16.34
2022-10-24T18:27:22.662Z,16.29
2022-10-24T18:28:58.132Z,16.29
2022-10-24T18:30:32.197Z,16.26
2022-10-24T18:32:05.628Z,16.23
2022-10-24T18:33:39.671Z,16.21
2022-10-24T18:35:14.358Z,16.19
2022-10-24T18:36:47.678Z,16.16
2022-10-24T18:38:20.800Z,16.12
2022-10-24T18:39:54.608Z,16.06
2022-10-24T18:41:46.978Z,16.03
2022-10-24T18:43:20.601Z,15.96
2022-10-24T18:44:54.780Z,15.90
2022-10-24T18:46:29.564Z,15.92
2022-10-24T18:48:03.173Z,15.89
2022-10-24T18:49:37.257Z,15.86
2022-10-24T18:51:23.449Z,15.81
2022-10-24T18:53:02.715Z,15.80
2022-10-24T18:54:37.961Z,15.77
2022-10-24T18:56:11.816Z,15.76
2022-10-24T18:57:45.782Z,15.75
2022-10-24T18:59:22.265Z,15.70
2022-10-24T19:01:00.108Z,15.67
2022-10-24T19:02:39.303Z,15.60
2022-10-24T19:04:19.145Z,15.51
2022-10-24T19:05:58.417Z,15.42
2022-10-24T19:07:33.303Z,15.36
2022-10-24T19:09:16.950Z,15.17
2022-10-24T19:10:51.825Z,14.96
2022-10-24T19:12:26.297Z,14.87
2022-10-24T19:13:59.618Z,14.86
2022-10-24T19:15:33.243Z,14.87
2022-10-24T19:17:07.305Z,14.88
2022-10-24T19:18:52.962Z,14.89
2022-10-24T19:20:27.029Z,14.85
2022-10-24T19:22:00.236Z,14.83
2022-10-24T19:23:35.314Z,14.80
2022-10-24T19:25:09.375Z,14.74
2022-10-24T19:26:42.572Z,14.69
2022-10-24T19:28:18.708Z,14.62
2022-10-24T19:29:52.016Z,14.69
2022-10-24T19:31:25.396Z,14.60
2022-10-24T19:32:58.634Z,14.65
2022-10-24T19:34:32.138Z,14.63
2022-10-24T19:36:06.417Z,14.60
2022-10-24T19:37:40.261Z,14.56
2022-10-24T19:39:14.856Z,14.46
2022-10-24T19:40:49.813Z,14.56
2022-10-24T19:42:22.980Z,14.57
2022-10-24T19:43:56.508Z,14.54
2022-10-24T19:45:29.712Z,14.53
2022-10-24T19:47:03.124Z,14.50
2022-10-24T19:48:37.959Z,14.47
2022-10-24T19:50:12.666Z,14.42
2022-10-24T19:51:45.853Z,14.36
2022-10-24T19:53:19.618Z,14.27
2022-10-24T19:54:54.131Z,14.26
2022-10-24T19:56:29.127Z,14.24
2022-10-24T19:58:02.309Z,14.23
2022-10-24T19:59:36.406Z,14.18
2022-10-24T20:01:12.115Z,14.10
2022-10-24T20:02:46.079Z,14.06
2022-10-24T20:04:19.438Z,14.07
2022-10-24T20:05:52.826Z,14.09
2022-10-24T20:07:26.219Z,13.98
2022-10-24T20:08:59.932Z,14.02
2022-10-24T20:10:34.497Z,14.04
2022-10-24T20:12:08.190Z,14.01
2022-10-24T20:13:41.328Z,13.98
2022-10-24T20:15:15.834Z,13.81
2022-10-24T20:16:49.085Z,13.73
2022-10-24T20:18:22.646Z,13.69
2022-10-24T20:19:55.799Z,13.66
2022-10-24T20:21:29.337Z,13.66
2022-10-24T20:23:02.925Z,13.67
2022-10-24T20:24:36.217Z,13.67
2022-10-24T20:26:12.782Z,13.65
2022-10-24T20:27:46.469Z,13.57
2022-10-24T20:29:19.897Z,13.51
2022-10-24T20:30:53.619Z,13.49
2022-10-24T20:32:26.825Z,13.47
2022-10-24T20:34:06.791Z,13.48
2022-10-24T20:35:41.622Z,13.48
2022-10-24T20:37:15.063Z,13.47
2022-10-24T20:38:48.254Z,13.40
2022-10-24T20:40:21.538Z,13.34
2022-10-24T20:41:56.098Z,13.31
2022-10-24T20:43:29.688Z,13.30
2022-10-24T20:45:02.812Z,13.30
2022-10-24T20:46:36.277Z,13.25
2022-10-24T20:48:09.646Z,13.31
2022-10-24T20:49:43.059Z,13.32
2022-10-24T20:51:18.069Z,13.34
2022-10-24T20:52:53.163Z,13.32
2022-10-24T20:54:26.492Z,13.26
2022-10-24T20:56:05.088Z,13.24
2022-10-24T20:57:39.605Z,13.18
2022-10-24T20:59:14.512Z,13.15
2022-10-24T21:00:47.694Z,13.08
2022-10-24T21:02:21.210Z,13.09
2022-10-24T21:03:55.224Z,13.06
2022-10-24T21:05:29.171Z,13.04
2022-10-24T21:07:02.366Z,13.01
2022-10-24T21:08:35.766Z,13.01